Capetan Vassilis — C6S2085 — position and weather

sailwx.info

Track history (hours):
 
Tides and Currents Weather Stations Pressure Air Temp Water Temp Dewpoint Dewpoint Depression Visibility Wind Speed Wind Dir Waves Ship Positions

Capetan Vassilis

Last reported at 2017-May-26 00:00 UTC. Time now 2017-May-26 00:02 UTC.
Position S 28°48' E 032°03'.

Length 191 m; draft 6.4 m.

Type: Cargo ship. MMSI: 311552000.

Date/timePositionNaut miles runAvg speedWind from/ knotsBaromVisibWave heightAir tempDewpointWater temp
2017-May-26 00:00S 28°48' E 032°03'0 0.0
2017-May-25 23:30S 28°48' E 032°03'0 0.0
2017-May-25 23:00S 28°48' E 032°03'0 0.0
2017-May-25 22:30S 28°48' E 032°03'0 0.0
2017-May-25 22:00S 28°48' E 032°03'0 0.0
2017-May-25 21:30S 28°48' E 032°03'0 0.0
2017-May-25 21:00S 28°48' E 032°03'0 0.0
2017-May-25 20:30S 28°48' E 032°03'0 0.0
2017-May-25 20:00S 28°48' E 032°03'0 0.0
2017-May-25 19:30S 28°48' E 032°03'0 0.0
2017-May-25 19:00S 28°48' E 032°03'0 0.0
2017-May-25 18:30S 28°48' E 032°03'0 0.0
2017-May-25 18:00S 28°48' E 032°03'0 0.0
2017-May-25 17:24S 28°48' E 032°03'0 0.0
2017-May-25 17:00S 28°48' E 032°03'0 0.0
2017-May-25 16:30S 28°48' E 032°03'0 0.0
2017-May-25 16:00S 28°48' E 032°03'0 0.0
2017-May-25 15:30S 28°48' E 032°03'0 0.0
2017-May-25 15:00S 28°48' E 032°03'0 0.0
2017-May-25 14:00S 28°48' E 032°03'0 0.0
2017-May-25 13:27S 28°48' E 032°03'0 0.0
2017-May-25 13:00S 28°48' E 032°03'0 0.0
2017-May-25 12:30S 28°48' E 032°03'0 0.0
2017-May-25 12:00S 28°48' E 032°03'0 0.0
2017-May-25 11:30S 28°48' E 032°03'0 0.0
2017-May-25 11:00S 28°48' E 032°03'0 0.0
2017-May-25 10:30S 28°48' E 032°03'0 0.0
2017-May-25 10:00S 28°48' E 032°03'0 0.0
2017-May-25 09:30S 28°48' E 032°03'0 0.0
2017-May-25 09:00S 28°48' E 032°03'0 0.0
2017-May-25 08:30S 28°48' E 032°03'0 0.0
2017-May-25 07:59S 28°48' E 032°03'0 0.0
2017-May-25 07:29S 28°48' E 032°03'1 1.1
2017-May-25 07:01S 28°48' E 032°03'4 8.5
2017-May-25 06:31S 28°50' E 032°08'2 4.7
2017-May-25 06:01S 28°52' E 032°09'0 1.0
2017-May-25 05:31S 28°52' E 032°09'1 2.4
2017-May-25 05:01S 28°53' E 032°09'0 0.4
2017-May-25 04:31S 28°53' E 032°09'0 0.1
2017-May-25 04:01S 28°53' E 032°09'0 0.1
2017-May-25 03:31S 28°53' E 032°09'0 0.1
2017-May-25 03:00S 28°53' E 032°09'0 0.1
2017-May-25 02:31S 28°53' E 032°09'0 0.1
2017-May-25 02:01S 28°53' E 032°09'0 0.0
2017-May-25 01:31S 28°53' E 032°09'0 0.4
2017-May-25 01:01S 28°53' E 032°10'2 3.3
2017-May-25 00:31S 28°53' E 032°11'1 2.3
2017-May-25 00:01S 28°52' E 032°12'1 2.7
2017-May-24 23:31S 28°50' E 032°13'510.1
2017-May-24 23:01S 28°47' E 032°17'611.0
2017-May-24 22:31S 28°43' E 032°21'713.1
2017-May-24 22:00S 28°39' E 032°27'1614.8
2017-May-24 20:57S 28°28' E 032°40'614.6
2017-May-24 20:30S 28°23' E 032°45'714.4
2017-May-24 20:00S 28°18' E 032°51'714.3
2017-May-24 19:30S 28°13' E 032°57'714.3
2017-May-24 19:00S 28°08' E 033°02'1614.4
2017-May-24 17:54S 27°58' E 033°16'  
Track history (hours):
 
Tides and Currents Weather Stations Pressure Air Temp Water Temp Dewpoint Dewpoint Depression Visibility Wind Speed Wind Dir Waves Ship Positions

Capetan Vassilis

Last reported at 2017-May-26 00:00 UTC. Time now 2017-May-26 00:02 UTC.
Position S 28°48' E 032°03'.

Length 191 m; draft 6.4 m.

Type: Cargo ship. MMSI: 311552000.

Date/timePositionNaut miles runAvg speedWind from/ knotsBaromVisibWave heightAir tempDewpointWater temp
2017-May-26 00:00S 28°48' E 032°03'0 0.0
2017-May-25 23:30S 28°48' E 032°03'0 0.0
2017-May-25 23:00S 28°48' E 032°03'0 0.0
2017-May-25 22:30S 28°48' E 032°03'0 0.0
2017-May-25 22:00S 28°48' E 032°03'0 0.0
2017-May-25 21:30S 28°48' E 032°03'0 0.0
2017-May-25 21:00S 28°48' E 032°03'0 0.0
2017-May-25 20:30S 28°48' E 032°03'0 0.0
2017-May-25 20:00S 28°48' E 032°03'0 0.0
2017-May-25 19:30S 28°48' E 032°03'0 0.0
2017-May-25 19:00S 28°48' E 032°03'0 0.0
2017-May-25 18:30S 28°48' E 032°03'0 0.0
2017-May-25 18:00S 28°48' E 032°03'0 0.0
2017-May-25 17:24S 28°48' E 032°03'0 0.0
2017-May-25 17:00S 28°48' E 032°03'0 0.0
2017-May-25 16:30S 28°48' E 032°03'0 0.0
2017-May-25 16:00S 28°48' E 032°03'0 0.0
2017-May-25 15:30S 28°48' E 032°03'0 0.0
2017-May-25 15:00S 28°48' E 032°03'0 0.0
2017-May-25 14:00S 28°48' E 032°03'0 0.0
2017-May-25 13:27S 28°48' E 032°03'0 0.0
2017-May-25 13:00S 28°48' E 032°03'0 0.0
2017-May-25 12:30S 28°48' E 032°03'0 0.0
2017-May-25 12:00S 28°48' E 032°03'0 0.0
2017-May-25 11:30S 28°48' E 032°03'0 0.0
2017-May-25 11:00S 28°48' E 032°03'0 0.0
2017-May-25 10:30S 28°48' E 032°03'0 0.0
2017-May-25 10:00S 28°48' E 032°03'0 0.0
2017-May-25 09:30S 28°48' E 032°03'0 0.0
2017-May-25 09:00S 28°48' E 032°03'0 0.0
2017-May-25 08:30S 28°48' E 032°03'0 0.0
2017-May-25 07:59S 28°48' E 032°03'0 0.0
2017-May-25 07:29S 28°48' E 032°03'1 1.1
2017-May-25 07:01S 28°48' E 032°03'4 8.5
2017-May-25 06:31S 28°50' E 032°08'2 4.7
2017-May-25 06:01S 28°52' E 032°09'0 1.0
2017-May-25 05:31S 28°52' E 032°09'1 2.4
2017-May-25 05:01S 28°53' E 032°09'0 0.4
2017-May-25 04:31S 28°53' E 032°09'0 0.1
2017-May-25 04:01S 28°53' E 032°09'0 0.1
2017-May-25 03:31S 28°53' E 032°09'0 0.1
2017-May-25 03:00S 28°53' E 032°09'0 0.1
2017-May-25 02:31S 28°53' E 032°09'0 0.1
2017-May-25 02:01S 28°53' E 032°09'0 0.0
2017-May-25 01:31S 28°53' E 032°09'0 0.4
2017-May-25 01:01S 28°53' E 032°10'2 3.3
2017-May-25 00:31S 28°53' E 032°11'1 2.3
2017-May-25 00:01S 28°52' E 032°12'1 2.7
2017-May-24 23:31S 28°50' E 032°13'510.1
2017-May-24 23:01S 28°47' E 032°17'611.0
2017-May-24 22:31S 28°43' E 032°21'713.1
2017-May-24 22:00S 28°39' E 032°27'1614.8
2017-May-24 20:57S 28°28' E 032°40'614.6
2017-May-24 20:30S 28°23' E 032°45'714.4
2017-May-24 20:00S 28°18' E 032°51'714.3
2017-May-24 19:30S 28°13' E 032°57'714.3
2017-May-24 19:00S 28°08' E 033°02'1614.4
2017-May-24 17:54S 27°58' E 033°16'  

Dump ship's entire track history